createdAt,value
2018-05-29T00:00:39.437Z,23.19
2018-05-29T00:03:06.898Z,23.11
2018-05-29T00:05:34.380Z,23.07
2018-05-29T00:08:01.834Z,23.03
2018-05-29T00:10:29.294Z,22.99
2018-05-29T00:12:56.947Z,22.98
2018-05-29T00:15:24.420Z,22.98
2018-05-29T00:17:51.896Z,22.93
2018-05-29T00:20:19.439Z,22.89
2018-05-29T00:22:47.064Z,22.87
2018-05-29T00:25:14.638Z,22.85
2018-05-29T00:27:42.103Z,22.84
2018-05-29T00:30:09.542Z,22.84
2018-05-29T00:32:37.017Z,22.85
2018-05-29T00:35:04.469Z,22.87
2018-05-29T00:37:31.996Z,22.82
2018-05-29T00:39:59.441Z,22.75
2018-05-29T00:42:26.948Z,22.72
2018-05-29T00:44:54.427Z,22.71
2018-05-29T00:47:21.889Z,22.72
2018-05-29T00:49:49.365Z,22.67
2018-05-29T00:52:16.827Z,22.66
2018-05-29T00:54:44.297Z,22.67
2018-05-29T00:57:11.762Z,22.63
2018-05-29T00:59:39.269Z,22.52
2018-05-29T01:02:06.704Z,22.36
2018-05-29T01:04:34.285Z,22.19
2018-05-29T01:07:01.812Z,22.03
2018-05-29T01:09:29.273Z,22.02
2018-05-29T01:11:56.770Z,21.97
2018-05-29T01:14:24.242Z,21.97
2018-05-29T01:16:51.692Z,21.98
2018-05-29T01:19:19.133Z,21.95
2018-05-29T01:21:46.599Z,21.90
2018-05-29T01:24:14.041Z,21.87
2018-05-29T01:26:41.490Z,21.86
2018-05-29T01:29:09.227Z,21.86
2018-05-29T01:31:36.663Z,21.88
2018-05-29T01:34:04.260Z,21.90
2018-05-29T01:36:31.709Z,21.89
2018-05-29T01:38:59.247Z,21.83
2018-05-29T01:41:26.700Z,21.76
2018-05-29T01:43:54.166Z,21.73
2018-05-29T01:46:21.601Z,21.72
2018-05-29T01:48:49.072Z,21.74
2018-05-29T01:51:16.559Z,21.78
2018-05-29T01:53:44.079Z,21.78
2018-05-29T01:56:11.557Z,21.78
2018-05-29T01:58:38.997Z,21.77
2018-05-29T02:01:06.872Z,21.71
2018-05-29T02:03:34.357Z,21.66
2018-05-29T02:06:01.921Z,21.62
2018-05-29T02:08:29.755Z,21.48
2018-05-29T02:10:57.294Z,21.51
2018-05-29T02:13:24.806Z,21.47
2018-05-29T02:15:52.247Z,21.35
2018-05-29T02:18:19.709Z,21.27
2018-05-29T02:20:47.211Z,21.33
2018-05-29T02:23:14.710Z,21.39
2018-05-29T02:25:42.144Z,21.41
2018-05-29T02:28:09.611Z,21.46
2018-05-29T02:30:37.057Z,21.43
2018-05-29T02:33:04.607Z,21.33
2018-05-29T02:35:32.041Z,21.28
2018-05-29T02:37:59.530Z,21.25
2018-05-29T02:42:53.778Z,21.26
2018-05-29T02:45:21.802Z,21.26
2018-05-29T02:47:49.273Z,21.24
2018-05-29T02:50:16.721Z,21.16
2018-05-29T02:52:44.275Z,21.24
2018-05-29T02:55:11.743Z,21.20
2018-05-29T02:57:39.177Z,21.20
2018-05-29T03:00:06.651Z,21.14
2018-05-29T03:02:34.112Z,21.13
2018-05-29T03:05:01.588Z,21.07
2018-05-29T03:07:29.070Z,21.00
2018-05-29T03:09:56.588Z,21.05
2018-05-29T03:12:24.065Z,21.07
2018-05-29T03:14:51.497Z,21.06
2018-05-29T03:17:18.963Z,21.06
2018-05-29T03:19:46.409Z,21.07
2018-05-29T03:22:13.870Z,21.10
2018-05-29T03:24:41.305Z,21.15
2018-05-29T03:27:08.780Z,21.14
2018-05-29T03:29:36.238Z,21.13
2018-05-29T03:32:04.032Z,21.13
2018-05-29T03:34:31.544Z,21.13
2018-05-29T03:36:59.010Z,21.14
2018-05-29T03:39:26.455Z,21.15
2018-05-29T03:41:53.907Z,21.14
2018-05-29T03:44:22.226Z,21.16
2018-05-29T03:46:49.671Z,21.20
2018-05-29T03:49:17.125Z,21.21
2018-05-29T03:51:44.626Z,21.19
2018-05-29T03:54:12.179Z,21.10
2018-05-29T03:56:39.712Z,20.84
2018-05-29T03:59:07.197Z,20.62
2018-05-29T04:01:34.644Z,20.59
2018-05-29T04:04:02.127Z,20.59
2018-05-29T04:06:29.582Z,20.52
2018-05-29T04:08:57.050Z,20.43
2018-05-29T04:11:24.508Z,20.37
2018-05-29T04:13:51.991Z,20.34
2018-05-29T04:16:19.596Z,20.44
2018-05-29T04:18:47.132Z,20.55
2018-05-29T04:21:14.620Z,20.60
2018-05-29T04:23:42.256Z,20.63
2018-05-29T04:26:09.833Z,20.67
2018-05-29T04:28:37.315Z,20.70
2018-05-29T04:31:04.779Z,20.74
2018-05-29T04:33:32.231Z,20.78
2018-05-29T04:35:59.732Z,20.76
2018-05-29T04:38:27.181Z,20.65
2018-05-29T04:40:54.663Z,20.58
2018-05-29T04:43:22.096Z,20.67
2018-05-29T04:45:49.614Z,20.78
2018-05-29T04:48:17.162Z,20.84
2018-05-29T04:50:44.756Z,20.91
2018-05-29T04:53:13.337Z,20.98
2018-05-29T04:55:40.986Z,21.09
2018-05-29T04:58:08.530Z,21.18
2018-05-29T05:00:35.963Z,21.27
2018-05-29T05:03:03.420Z,21.32
2018-05-29T05:05:30.889Z,21.32
2018-05-29T05:07:58.381Z,21.35
2018-05-29T05:10:25.842Z,21.37
2018-05-29T05:12:53.319Z,21.43
2018-05-29T05:15:20.805Z,21.48
2018-05-29T05:17:48.338Z,21.48
2018-05-29T05:20:15.825Z,21.48
2018-05-29T05:22:43.237Z,21.42
2018-05-29T05:25:10.768Z,21.43
2018-05-29T05:27:38.232Z,21.45
2018-05-29T05:30:05.700Z,21.53
2018-05-29T05:32:33.384Z,21.49
2018-05-29T05:35:00.851Z,21.53
2018-05-29T05:37:28.349Z,21.66
2018-05-29T05:39:55.838Z,21.78
2018-05-29T05:42:23.293Z,21.87
2018-05-29T05:44:50.757Z,21.97
2018-05-29T05:47:18.205Z,22.10
2018-05-29T05:49:45.779Z,22.06
2018-05-29T05:52:13.251Z,21.86
2018-05-29T05:54:40.715Z,21.67
2018-05-29T05:57:08.184Z,21.61
2018-05-29T05:59:35.678Z,21.59
2018-05-29T06:02:03.181Z,21.66
2018-05-29T06:04:30.677Z,21.72
2018-05-29T06:06:58.159Z,21.80
2018-05-29T06:09:25.644Z,21.93
2018-05-29T06:11:53.138Z,22.06
2018-05-29T06:14:21.484Z,22.17
2018-05-29T06:16:48.942Z,22.32
2018-05-29T06:19:16.404Z,22.37
2018-05-29T06:21:43.840Z,22.51
2018-05-29T06:24:11.745Z,22.62
2018-05-29T06:26:39.198Z,22.75
2018-05-29T06:29:06.752Z,22.81
2018-05-29T06:31:34.257Z,22.60
2018-05-29T06:34:01.713Z,22.74
2018-05-29T06:36:29.195Z,22.93
2018-05-29T06:38:56.906Z,23.06
2018-05-29T06:41:24.426Z,23.04
2018-05-29T06:43:51.908Z,23.04
2018-05-29T06:46:19.359Z,22.92
2018-05-29T06:48:46.788Z,22.90
2018-05-29T06:51:14.983Z,23.02
2018-05-29T06:53:42.424Z,23.09
2018-05-29T06:56:10.509Z,23.16
2018-05-29T06:58:38.010Z,23.26
2018-05-29T07:01:05.928Z,23.21
2018-05-29T07:03:33.394Z,23.46
2018-05-29T07:06:00.877Z,23.52
2018-05-29T07:08:28.319Z,23.56
2018-05-29T07:10:55.790Z,23.60
2018-05-29T07:13:23.279Z,23.62
2018-05-29T07:15:50.808Z,23.60
2018-05-29T07:18:18.295Z,23.45
2018-05-29T07:20:45.756Z,23.34
2018-05-29T07:23:13.223Z,23.38
2018-05-29T07:25:41.079Z,23.39
2018-05-29T07:28:08.536Z,23.34
2018-05-29T07:30:35.974Z,23.36
2018-05-29T07:33:03.608Z,23.36
2018-05-29T07:35:31.678Z,23.31
2018-05-29T07:37:59.211Z,23.35
2018-05-29T07:40:26.668Z,23.40
2018-05-29T07:42:54.398Z,23.43
2018-05-29T07:45:22.030Z,23.46
2018-05-29T07:47:49.526Z,23.37
2018-05-29T07:50:17.129Z,23.38
2018-05-29T07:52:44.572Z,23.37
2018-05-29T07:55:12.224Z,23.39
2018-05-29T07:57:39.757Z,23.30
2018-05-29T08:00:07.220Z,23.26
2018-05-29T08:02:34.716Z,23.32
2018-05-29T08:05:02.341Z,23.34
2018-05-29T08:07:29.794Z,23.39
2018-05-29T08:09:57.271Z,23.47
2018-05-29T08:12:24.721Z,23.52
2018-05-29T08:14:52.195Z,23.64
2018-05-29T08:17:19.703Z,23.63
2018-05-29T08:19:47.789Z,23.63
2018-05-29T08:22:15.232Z,23.79
2018-05-29T08:24:43.102Z,23.96
2018-05-29T08:27:11.226Z,23.99
2018-05-29T08:29:38.767Z,23.98
2018-05-29T08:32:06.301Z,24.13
2018-05-29T08:34:33.794Z,24.35
2018-05-29T08:37:01.345Z,24.41
2018-05-29T08:39:28.816Z,24.62
2018-05-29T08:41:56.273Z,24.60
2018-05-29T08:44:23.719Z,24.60
2018-05-29T08:46:51.203Z,24.62
2018-05-29T08:49:18.680Z,24.79
2018-05-29T08:51:46.137Z,24.98
2018-05-29T08:54:13.669Z,24.99
2018-05-29T08:56:41.266Z,25.05
2018-05-29T08:59:08.669Z,25.19
2018-05-29T09:01:36.139Z,25.30
2018-05-29T09:04:03.649Z,25.23
2018-05-29T09:06:31.113Z,25.25
2018-05-29T09:08:59.320Z,25.35
2018-05-29T09:11:26.808Z,25.26
2018-05-29T09:13:54.295Z,25.40
2018-05-29T09:16:21.751Z,25.54
2018-05-29T09:18:49.408Z,25.67
2018-05-29T09:21:17.037Z,25.84
2018-05-29T09:23:44.555Z,25.86
2018-05-29T09:26:12.741Z,26.06
2018-05-29T09:28:40.921Z,26.19
2018-05-29T09:31:08.371Z,26.34
2018-05-29T09:33:36.616Z,26.59
2018-05-29T09:36:04.058Z,26.85
2018-05-29T09:38:32.530Z,27.21
2018-05-29T09:40:59.981Z,27.10
2018-05-29T09:43:27.473Z,27.06
2018-05-29T09:45:55.662Z,27.29
2018-05-29T09:48:23.252Z,27.30
2018-05-29T09:50:51.241Z,27.16
2018-05-29T09:53:18.925Z,27.14
2018-05-29T09:55:46.375Z,27.13
2018-05-29T09:58:14.159Z,27.25
2018-05-29T10:00:41.686Z,27.29
2018-05-29T10:03:09.173Z,27.57
2018-05-29T10:05:36.625Z,27.98
2018-05-29T10:08:04.560Z,28.28
2018-05-29T10:10:32.085Z,28.34
2018-05-29T10:12:59.910Z,28.27
2018-05-29T10:15:27.380Z,28.12
2018-05-29T10:17:54.899Z,28.26
2018-05-29T10:20:22.372Z,28.27
2018-05-29T10:22:50.467Z,28.28
2018-05-29T10:25:18.008Z,28.34
2018-05-29T10:27:45.473Z,28.62
2018-05-29T10:30:12.948Z,28.55
2018-05-29T10:32:40.411Z,28.54
2018-05-29T10:35:07.900Z,28.76
2018-05-29T10:37:36.157Z,28.95
2018-05-29T10:40:03.726Z,29.30
2018-05-29T10:42:31.194Z,29.45
2018-05-29T10:44:58.660Z,29.11
2018-05-29T10:47:26.119Z,29.20
2018-05-29T10:49:54.024Z,29.18
2018-05-29T10:52:21.495Z,29.21
2018-05-29T10:54:49.031Z,28.94
2018-05-29T10:57:16.532Z,28.65
2018-05-29T10:59:44.050Z,28.63
2018-05-29T11:02:11.526Z,28.71
2018-05-29T11:04:38.982Z,28.86
2018-05-29T11:07:06.500Z,28.87
2018-05-29T11:09:34.986Z,28.80
2018-05-29T11:12:04.323Z,28.97
2018-05-29T11:14:31.777Z,29.10
2018-05-29T11:17:00.230Z,29.02
2018-05-29T11:19:27.687Z,29.10
2018-05-29T11:21:55.166Z,29.61
2018-05-29T11:24:22.658Z,29.94
2018-05-29T11:26:50.526Z,29.82
2018-05-29T11:29:18.336Z,29.91
2018-05-29T11:31:45.801Z,29.96
2018-05-29T11:34:13.412Z,30.18
2018-05-29T11:36:40.923Z,30.05
2018-05-29T11:39:08.382Z,29.74
2018-05-29T11:41:35.839Z,29.44
2018-05-29T11:44:03.304Z,29.31
2018-05-29T11:46:30.772Z,29.34
2018-05-29T11:48:58.337Z,29.20
2018-05-29T11:51:25.820Z,29.12
2018-05-29T11:53:53.317Z,29.00
2018-05-29T11:56:20.739Z,29.23
2018-05-29T11:58:52.090Z,29.24
2018-05-29T12:01:20.385Z,29.45
2018-05-29T12:03:47.912Z,29.45
2018-05-29T12:06:19.169Z,29.15
2018-05-29T12:08:47.380Z,29.01
2018-05-29T12:11:15.735Z,28.93
2018-05-29T12:13:43.215Z,28.88
2018-05-29T12:16:10.845Z,29.10
2018-05-29T12:18:38.326Z,29.42
2018-05-29T12:21:05.788Z,29.70
2018-05-29T12:23:33.251Z,29.82
2018-05-29T12:26:00.713Z,29.99
2018-05-29T12:28:28.224Z,29.76
2018-05-29T12:30:55.700Z,29.85
2018-05-29T12:33:23.342Z,29.91
2018-05-29T12:35:51.515Z,29.78
2018-05-29T12:38:19.109Z,29.43
2018-05-29T12:40:46.605Z,29.59
2018-05-29T12:43:14.083Z,29.70
2018-05-29T12:45:41.616Z,29.50
2018-05-29T12:48:09.503Z,30.06
2018-05-29T12:50:36.931Z,31.49
2018-05-29T12:53:04.474Z,31.72
2018-05-29T12:55:31.989Z,32.39
2018-05-29T12:57:59.568Z,33.14
2018-05-29T13:00:27.096Z,34.10
2018-05-29T13:02:54.693Z,33.48
2018-05-29T13:05:22.274Z,32.51
2018-05-29T13:07:49.753Z,31.85
2018-05-29T13:10:17.301Z,31.34
2018-05-29T13:12:45.218Z,29.73
2018-05-29T13:15:12.666Z,28.82
2018-05-29T13:17:40.674Z,28.74
2018-05-29T13:20:08.146Z,28.36
2018-05-29T13:22:36.586Z,28.06
2018-05-29T13:25:04.123Z,27.49
2018-05-29T13:27:31.614Z,27.67
2018-05-29T13:30:00.294Z,27.56
2018-05-29T13:32:27.772Z,27.57
2018-05-29T13:34:55.362Z,27.13
2018-05-29T13:37:22.895Z,27.19
2018-05-29T13:39:50.549Z,27.09
2018-05-29T13:42:17.982Z,26.90
2018-05-29T13:44:45.460Z,26.80
2018-05-29T13:47:13.287Z,26.37
2018-05-29T13:49:40.830Z,26.10
2018-05-29T13:52:08.607Z,25.89
2018-05-29T13:54:36.072Z,25.88
2018-05-29T13:57:05.796Z,25.85
2018-05-29T13:59:34.199Z,25.64
2018-05-29T14:02:02.741Z,25.63
2018-05-29T14:04:30.189Z,25.52
2018-05-29T14:06:57.883Z,25.17
2018-05-29T14:09:25.457Z,25.44
2018-05-29T14:11:52.985Z,25.68
2018-05-29T14:14:20.767Z,25.85
2018-05-29T14:16:48.291Z,25.65
2018-05-29T14:19:16.096Z,25.82
2018-05-29T14:21:43.555Z,25.96
2018-05-29T14:24:11.071Z,25.82
2018-05-29T14:26:38.530Z,25.92
2018-05-29T14:29:05.995Z,25.86
2018-05-29T14:31:33.476Z,25.69
2018-05-29T14:34:00.953Z,25.68
2018-05-29T14:36:28.410Z,25.61
2018-05-29T14:38:56.269Z,25.63
2018-05-29T14:41:23.774Z,25.28
2018-05-29T14:43:51.292Z,25.19
2018-05-29T14:46:18.711Z,25.08
2018-05-29T14:48:46.152Z,25.14
2018-05-29T14:51:15.490Z,25.00
2018-05-29T14:53:43.914Z,25.04
2018-05-29T14:56:11.406Z,24.97
2018-05-29T14:58:38.940Z,24.69
2018-05-29T15:01:06.372Z,24.69
2018-05-29T15:03:34.092Z,24.90
2018-05-29T15:06:01.891Z,25.10
2018-05-29T15:08:29.356Z,25.21
2018-05-29T15:10:56.878Z,24.96
2018-05-29T15:13:24.481Z,25.11
2018-05-29T15:15:51.962Z,25.41
2018-05-29T15:18:19.415Z,25.53
2018-05-29T15:20:46.940Z,25.50
2018-05-29T15:23:14.392Z,25.33
2018-05-29T15:25:41.875Z,25.30
2018-05-29T15:28:09.345Z,25.48
2018-05-29T15:30:37.678Z,25.64
2018-05-29T15:33:05.135Z,25.47
2018-05-29T15:35:32.625Z,25.39
2018-05-29T15:38:00.115Z,25.31
2018-05-29T15:40:27.567Z,25.22
2018-05-29T15:42:55.105Z,25.16
2018-05-29T15:45:22.557Z,25.17
2018-05-29T15:47:50.056Z,25.10
2018-05-29T15:50:17.645Z,24.69
2018-05-29T15:52:45.146Z,24.81
2018-05-29T15:55:12.583Z,24.80
2018-05-29T15:57:40.941Z,24.98
2018-05-29T16:00:08.459Z,25.09
2018-05-29T16:02:36.134Z,25.18
2018-05-29T16:05:03.620Z,25.18
2018-05-29T16:07:31.083Z,25.10
2018-05-29T16:09:58.943Z,24.85
2018-05-29T16:12:26.436Z,24.54
2018-05-29T16:14:53.914Z,24.65
2018-05-29T16:17:21.372Z,24.81
2018-05-29T16:19:48.944Z,24.80
2018-05-29T16:22:16.441Z,24.79
2018-05-29T16:24:44.055Z,24.60
2018-05-29T16:27:11.584Z,24.66
2018-05-29T16:29:39.210Z,24.67
2018-05-29T16:32:06.653Z,24.40
2018-05-29T16:34:34.483Z,24.53
2018-05-29T16:37:01.917Z,24.67
2018-05-29T16:39:29.746Z,24.84
2018-05-29T16:41:57.337Z,24.96
2018-05-29T16:44:24.841Z,24.93
2018-05-29T16:46:52.320Z,24.90
2018-05-29T16:49:19.827Z,24.83
2018-05-29T16:51:47.580Z,24.78
2018-05-29T16:54:15.158Z,24.89
2018-05-29T16:56:42.672Z,24.55
2018-05-29T16:59:10.292Z,24.46
2018-05-29T17:01:37.794Z,24.72
2018-05-29T17:04:05.458Z,24.97
2018-05-29T17:06:32.993Z,24.72
2018-05-29T17:09:00.694Z,24.84
2018-05-29T17:11:28.237Z,25.01
2018-05-29T17:13:55.740Z,24.98
2018-05-29T17:16:23.220Z,24.70
2018-05-29T17:18:50.838Z,24.76
2018-05-29T17:21:18.305Z,24.60
2018-05-29T17:23:45.829Z,24.76
2018-05-29T17:26:13.795Z,24.81
2018-05-29T17:28:41.270Z,24.86
2018-05-29T17:31:08.930Z,24.65
2018-05-29T17:33:36.433Z,24.78
2018-05-29T17:36:05.945Z,24.74
2018-05-29T17:38:35.418Z,24.73
2018-05-29T17:41:07.602Z,24.68
2018-05-29T17:43:37.503Z,24.75
2018-05-29T17:46:05.306Z,24.70
2018-05-29T17:48:32.818Z,24.62
2018-05-29T17:51:00.478Z,24.51
2018-05-29T17:53:30.620Z,24.50
2018-05-29T17:56:00.074Z,24.52
2018-05-29T17:58:29.515Z,24.39
2018-05-29T18:00:58.833Z,24.49
2018-05-29T18:03:26.712Z,24.51
2018-05-29T18:06:01.556Z,24.54
2018-05-29T18:08:31.690Z,24.51
2018-05-29T18:11:00.776Z,24.43
2018-05-29T18:13:28.518Z,24.34
2018-05-29T18:15:57.800Z,24.28
2018-05-29T18:18:26.454Z,24.27
2018-05-29T18:20:54.180Z,24.27
2018-05-29T18:23:21.900Z,24.23
2018-05-29T18:25:49.602Z,24.13
2018-05-29T18:28:17.251Z,24.03
2018-05-29T18:30:44.800Z,24.07
2018-05-29T18:33:12.333Z,23.86
2018-05-29T18:35:39.903Z,23.77
2018-05-29T18:38:10.916Z,23.88
2018-05-29T18:40:41.027Z,23.86
2018-05-29T18:43:08.535Z,23.92
2018-05-29T18:45:36.050Z,23.87
2018-05-29T18:48:03.500Z,23.92
2018-05-29T18:50:31.022Z,23.94
2018-05-29T18:52:58.487Z,23.90
2018-05-29T18:55:27.683Z,23.90
2018-05-29T18:57:55.184Z,23.81
2018-05-29T19:00:22.830Z,23.83
2018-05-29T19:02:50.506Z,23.65
2018-05-29T19:05:19.585Z,23.64
2018-05-29T19:07:47.043Z,23.55
2018-05-29T19:10:14.529Z,23.57
2018-05-29T19:12:42.009Z,23.61
2018-05-29T19:15:09.445Z,23.62
2018-05-29T19:17:36.971Z,23.64
2018-05-29T19:20:04.422Z,23.63
2018-05-29T19:22:31.908Z,23.62
2018-05-29T19:24:59.436Z,23.59
2018-05-29T19:27:26.968Z,23.58
2018-05-29T19:29:54.435Z,23.56
2018-05-29T19:32:21.947Z,23.53
2018-05-29T19:34:50.020Z,23.51
2018-05-29T19:37:17.494Z,23.49
2018-05-29T19:39:45.045Z,23.48
2018-05-29T19:42:12.549Z,23.47
2018-05-29T19:44:40.400Z,23.39
2018-05-29T19:47:07.968Z,23.36
2018-05-29T19:49:36.278Z,23.33
2018-05-29T19:52:04.682Z,23.28
2018-05-29T19:54:32.173Z,23.26
2018-05-29T19:56:59.666Z,23.19
2018-05-29T19:59:29.344Z,23.13
2018-05-29T20:01:58.893Z,23.12
2018-05-29T20:04:26.392Z,23.08
2018-05-29T20:06:56.808Z,23.08
2018-05-29T20:09:27.522Z,23.06
2018-05-29T20:11:59.545Z,23.05
2018-05-29T20:14:28.626Z,22.98
2018-05-29T20:16:58.428Z,22.90
2018-05-29T20:19:27.509Z,22.86
2018-05-29T20:21:56.135Z,22.87
2018-05-29T20:24:25.157Z,22.85
2018-05-29T20:26:57.997Z,22.80
2018-05-29T20:29:28.294Z,22.70
2018-05-29T20:32:00.066Z,22.61
2018-05-29T20:34:29.680Z,22.55
2018-05-29T20:36:58.262Z,22.50
2018-05-29T20:39:25.950Z,22.44
2018-05-29T20:41:54.184Z,22.83
2018-05-29T20:44:21.681Z,22.69
2018-05-29T20:46:49.268Z,22.57
2018-05-29T20:49:16.916Z,22.48
2018-05-29T20:51:44.386Z,22.35
2018-05-29T20:54:11.866Z,22.19
2018-05-29T20:56:39.428Z,22.13
2018-05-29T20:59:07.493Z,22.05
2018-05-29T21:01:35.045Z,21.97
2018-05-29T21:04:02.508Z,21.96
2018-05-29T21:06:29.980Z,21.86
2018-05-29T21:08:58.854Z,21.77
2018-05-29T21:11:26.361Z,21.78
2018-05-29T21:13:53.829Z,21.78
2018-05-29T21:16:21.365Z,21.78
2018-05-29T21:18:48.856Z,21.74
2018-05-29T21:21:16.389Z,21.74
2018-05-29T21:23:43.842Z,21.70
2018-05-29T21:26:11.359Z,21.67
2018-05-29T21:28:38.853Z,21.65
2018-05-29T21:31:06.583Z,21.56
2018-05-29T21:33:34.108Z,21.53
2018-05-29T21:36:01.564Z,21.48
2018-05-29T21:38:29.072Z,21.45
2018-05-29T21:40:56.524Z,21.43
2018-05-29T21:43:24.034Z,21.44
2018-05-29T21:45:51.494Z,21.43
2018-05-29T21:48:18.979Z,21.41
2018-05-29T21:50:46.444Z,21.32
2018-05-29T21:53:13.935Z,21.22
2018-05-29T21:55:41.420Z,21.24
2018-05-29T21:58:08.934Z,21.17
2018-05-29T22:00:36.391Z,21.21
2018-05-29T22:03:03.874Z,21.12
2018-05-29T22:05:31.378Z,21.05
2018-05-29T22:07:58.840Z,21.05
2018-05-29T22:10:26.402Z,20.94
2018-05-29T22:12:53.840Z,20.89
2018-05-29T22:15:21.298Z,20.86
2018-05-29T22:17:48.794Z,20.77
2018-05-29T22:20:16.278Z,20.79
2018-05-29T22:22:43.741Z,20.81
2018-05-29T22:25:11.972Z,20.80
2018-05-29T22:27:39.597Z,20.74
2018-05-29T22:30:07.091Z,20.75
2018-05-29T22:32:34.785Z,20.75
2018-05-29T22:35:03.047Z,20.74
2018-05-29T22:37:31.414Z,20.70
2018-05-29T22:39:58.910Z,20.71
2018-05-29T22:42:26.409Z,20.70
2018-05-29T22:44:53.873Z,20.68
2018-05-29T22:47:21.354Z,20.64
2018-05-29T22:49:48.820Z,20.58
2018-05-29T22:52:16.309Z,20.55
2018-05-29T22:54:43.766Z,20.51
2018-05-29T22:57:11.321Z,20.50
2018-05-29T22:59:38.818Z,20.40
2018-05-29T23:02:07.083Z,20.36
2018-05-29T23:04:34.533Z,20.33
2018-05-29T23:07:01.994Z,20.30
2018-05-29T23:09:29.524Z,20.33
2018-05-29T23:11:57.659Z,20.31
2018-05-29T23:14:25.164Z,20.24
2018-05-29T23:16:52.615Z,20.16
2018-05-29T23:19:20.066Z,20.12
2018-05-29T23:21:47.512Z,20.11
2018-05-29T23:24:15.089Z,20.08
2018-05-29T23:26:42.647Z,20.03
2018-05-29T23:29:10.223Z,20.05
2018-05-29T23:31:37.750Z,20.06
2018-05-29T23:34:05.398Z,20.02
2018-05-29T23:36:32.887Z,19.95
2018-05-29T23:39:01.016Z,19.97
2018-05-29T23:41:28.497Z,19.94
2018-05-29T23:43:56.118Z,19.97
2018-05-29T23:46:23.601Z,19.86
2018-05-29T23:48:51.045Z,19.81
2018-05-29T23:51:18.531Z,19.77
2018-05-29T23:53:45.984Z,19.79
2018-05-29T23:56:13.470Z,19.79
2018-05-29T23:58:40.990Z,19.81
